createdAt,value
2023-03-03T00:01:28.134Z,48.97
2023-03-03T00:03:49.717Z,46.97
2023-03-03T00:06:13.426Z,46.43
2023-03-03T00:08:34.533Z,47.33
2023-03-03T00:10:55.966Z,45.67
2023-03-03T00:13:18.591Z,45.63
2023-03-03T00:15:39.666Z,47.40
2023-03-03T00:18:01.771Z,49.17
2023-03-03T00:20:35.329Z,51.63
2023-03-03T00:22:58.484Z,48.23
2023-03-03T00:25:25.523Z,51.30
2023-03-03T00:27:46.490Z,47.53
2023-03-03T00:30:18.151Z,52.50
2023-03-03T00:32:43.456Z,51.70
2023-03-03T00:35:18.873Z,49.57
2023-03-03T00:37:42.426Z,54.67
2023-03-03T00:40:18.210Z,49.50
2023-03-03T00:42:40.588Z,49.80
2023-03-03T00:45:01.925Z,53.20
2023-03-03T00:47:31.058Z,46.27
2023-03-03T00:49:52.595Z,55.43
2023-03-03T00:52:14.845Z,50.77
2023-03-03T00:54:36.032Z,50.27
2023-03-03T00:56:57.125Z,52.07
2023-03-03T00:59:19.672Z,53.13
2023-03-03T01:01:41.064Z,51.93
2023-03-03T01:04:02.381Z,51.80
2023-03-03T01:06:23.855Z,50.80
2023-03-03T01:08:44.886Z,52.60
2023-03-03T01:11:08.477Z,51.10
2023-03-03T01:16:47.342Z,49.97
2023-03-03T01:19:08.473Z,51.40
2023-03-03T01:21:29.528Z,53.53
2023-03-03T01:23:50.907Z,50.93
2023-03-03T01:26:12.288Z,51.00
2023-03-03T01:28:34.023Z,54.57
2023-03-03T01:30:55.405Z,54.43
2023-03-03T01:33:18.208Z,49.87
2023-03-03T01:35:44.177Z,52.77
2023-03-03T01:38:05.296Z,51.83
2023-03-03T01:40:27.626Z,54.30
2023-03-03T01:42:48.902Z,52.73
2023-03-03T01:45:21.426Z,54.43
2023-03-03T01:47:43.988Z,57.67
2023-03-03T01:50:10.489Z,60.47
2023-03-03T01:52:33.736Z,56.30
2023-03-03T01:54:55.804Z,56.63
2023-03-03T01:57:19.773Z,54.60
2023-03-03T01:59:44.382Z,54.50
2023-03-03T02:02:06.160Z,52.33
2023-03-03T02:04:27.765Z,55.17
2023-03-03T02:06:52.964Z,56.63
2023-03-03T02:09:17.737Z,53.70
2023-03-03T02:11:39.341Z,53.80
2023-03-03T02:14:00.578Z,60.47
2023-03-03T02:16:21.973Z,52.67
2023-03-03T02:18:43.212Z,55.37
2023-03-03T02:21:06.762Z,52.87
2023-03-03T02:23:31.901Z,51.53
2023-03-03T02:25:58.562Z,53.47
2023-03-03T02:29:01.137Z,53.63
2023-03-03T02:31:24.853Z,55.77
2023-03-03T02:33:47.159Z,57.00
2023-03-03T02:36:08.659Z,59.13
2023-03-03T02:38:31.866Z,54.50
2023-03-03T02:40:57.385Z,55.63
2023-03-03T02:43:21.112Z,54.10
2023-03-03T02:45:43.461Z,50.77
2023-03-03T02:48:06.130Z,50.60
2023-03-03T02:50:27.390Z,54.00
2023-03-03T02:52:48.433Z,54.07
2023-03-03T02:55:10.253Z,55.10
2023-03-03T02:57:31.377Z,51.53
2023-03-03T02:59:52.614Z,53.73
2023-03-03T03:02:13.949Z,53.23
2023-03-03T03:04:36.416Z,51.90
2023-03-03T03:06:57.797Z,51.97
2023-03-03T03:09:19.690Z,50.13
2023-03-03T03:11:41.525Z,50.53
2023-03-03T03:14:02.904Z,51.20
2023-03-03T03:16:24.242Z,51.23
2023-03-03T03:18:45.434Z,50.30
2023-03-03T03:21:08.734Z,53.50
2023-03-03T03:23:29.824Z,52.00
2023-03-03T03:25:51.137Z,46.03
2023-03-03T03:28:12.413Z,49.73
2023-03-03T03:30:33.398Z,51.90
2023-03-03T03:32:54.630Z,48.03
2023-03-03T03:35:17.254Z,47.53
2023-03-03T03:37:40.015Z,50.77
2023-03-03T03:40:01.394Z,48.20
2023-03-03T03:42:22.605Z,48.50
2023-03-03T03:44:44.014Z,51.87
2023-03-03T03:47:05.224Z,46.60
2023-03-03T03:49:27.126Z,44.57
2023-03-03T03:51:48.407Z,49.60
2023-03-03T03:54:11.151Z,46.90
2023-03-03T03:56:32.811Z,48.60
2023-03-03T03:58:53.734Z,45.70
2023-03-03T04:01:14.968Z,49.33
2023-03-03T04:03:36.337Z,49.43
2023-03-03T04:05:57.386Z,46.23
2023-03-03T04:08:18.585Z,48.43
2023-03-03T04:10:41.264Z,48.20
2023-03-03T04:13:02.259Z,48.73
2023-03-03T04:15:23.492Z,48.23
2023-03-03T04:17:44.694Z,51.70
2023-03-03T04:20:06.864Z,48.00
2023-03-03T04:22:28.064Z,47.97
2023-03-03T04:24:49.715Z,50.93
2023-03-03T04:27:13.477Z,49.00
2023-03-03T04:29:34.587Z,48.93
2023-03-03T04:31:56.439Z,50.83
2023-03-03T04:34:17.943Z,53.23
2023-03-03T04:36:39.397Z,52.97
2023-03-03T04:39:00.730Z,49.20
2023-03-03T04:41:22.152Z,52.33
2023-03-03T04:43:44.732Z,52.03
2023-03-03T04:46:06.323Z,50.63
2023-03-03T04:48:27.260Z,48.17
2023-03-03T04:50:48.529Z,54.03
2023-03-03T04:53:09.713Z,53.27
2023-03-03T04:55:31.067Z,51.17
2023-03-03T04:57:52.056Z,48.77
2023-03-03T05:00:15.696Z,50.50
2023-03-03T05:02:37.524Z,50.73
2023-03-03T05:04:58.695Z,47.43
2023-03-03T05:07:20.923Z,48.27
2023-03-03T05:09:42.099Z,51.23
2023-03-03T05:12:03.603Z,50.93
2023-03-03T05:14:24.808Z,50.93
2023-03-03T05:16:47.628Z,50.17
2023-03-03T05:19:08.693Z,47.63
2023-03-03T05:21:29.840Z,48.87
2023-03-03T05:23:51.062Z,52.73
2023-03-03T05:26:12.486Z,48.23
2023-03-03T05:28:33.809Z,47.93
2023-03-03T05:30:55.289Z,50.03
2023-03-03T05:33:19.816Z,46.33
2023-03-03T05:35:40.848Z,48.73
2023-03-03T05:38:05.442Z,46.90
2023-03-03T05:40:27.705Z,48.27
2023-03-03T05:42:49.031Z,45.90
2023-03-03T05:45:10.664Z,44.87
2023-03-03T05:47:31.845Z,45.80
2023-03-03T05:49:54.381Z,51.73
2023-03-03T05:52:15.886Z,46.37
2023-03-03T05:54:37.169Z,49.57
2023-03-03T05:56:58.469Z,54.50
2023-03-03T05:59:20.709Z,49.17
2023-03-03T06:01:42.170Z,50.13
2023-03-03T06:04:03.611Z,49.73
2023-03-03T06:06:26.688Z,47.20
2023-03-03T06:08:47.977Z,48.60
2023-03-03T06:11:09.373Z,46.53
2023-03-03T06:13:30.916Z,49.30
2023-03-03T06:15:52.140Z,50.87
2023-03-03T06:18:13.446Z,47.53
2023-03-03T06:20:35.384Z,47.50
2023-03-03T06:22:57.835Z,45.73
2023-03-03T06:25:19.438Z,48.83
2023-03-03T06:27:40.449Z,49.97
2023-03-03T06:30:01.460Z,50.90
2023-03-03T06:32:22.853Z,46.77
2023-03-03T06:34:44.123Z,46.27
2023-03-03T06:37:05.456Z,47.80
2023-03-03T06:39:28.308Z,48.27
2023-03-03T06:41:49.825Z,47.43
2023-03-03T06:44:11.802Z,48.47
2023-03-03T06:46:32.762Z,48.97
2023-03-03T06:48:54.207Z,51.40
2023-03-03T06:51:23.512Z,45.17
2023-03-03T06:53:44.379Z,48.43
2023-03-03T06:56:09.739Z,50.23
2023-03-03T06:58:31.257Z,51.73
2023-03-03T07:00:54.966Z,49.07
2023-03-03T07:03:16.935Z,43.30
2023-03-03T07:05:38.256Z,49.07
2023-03-03T07:07:59.680Z,46.40
2023-03-03T07:13:47.532Z,54.33
2023-03-03T07:16:12.271Z,61.40
2023-03-03T07:18:36.137Z,49.27
2023-03-03T07:20:57.618Z,50.07
2023-03-03T07:23:21.993Z,53.50
2023-03-03T07:25:43.560Z,50.63
2023-03-03T07:28:12.748Z,53.13
2023-03-03T07:30:35.168Z,51.97
2023-03-03T07:32:57.562Z,52.10
2023-03-03T07:35:26.544Z,50.67
2023-03-03T07:37:47.775Z,48.73
2023-03-03T07:40:26.305Z,52.27
2023-03-03T07:42:47.591Z,51.03
2023-03-03T07:45:23.219Z,55.13
2023-03-03T07:47:45.682Z,52.00
2023-03-03T07:50:14.561Z,51.30
2023-03-03T07:52:40.259Z,47.30
2023-03-03T07:55:02.211Z,50.67
2023-03-03T07:57:24.205Z,50.10
2023-03-03T07:59:48.608Z,50.93
2023-03-03T08:02:15.885Z,54.23
2023-03-03T08:04:41.174Z,53.00
2023-03-03T08:07:03.191Z,50.03
2023-03-03T08:09:43.578Z,53.47
2023-03-03T08:12:17.209Z,48.13
2023-03-03T08:14:39.073Z,52.13
2023-03-03T08:17:01.823Z,51.60
2023-03-03T08:19:23.129Z,49.40
2023-03-03T08:21:45.770Z,53.63
2023-03-03T08:24:07.200Z,49.67
2023-03-03T08:26:28.554Z,53.53
2023-03-03T08:28:50.076Z,49.73
2023-03-03T08:31:22.360Z,50.37
2023-03-03T08:33:46.658Z,49.00
2023-03-03T08:36:08.662Z,50.43
2023-03-03T08:38:31.312Z,50.87
2023-03-03T08:40:52.582Z,47.87
2023-03-03T08:43:17.377Z,51.73
2023-03-03T08:45:38.837Z,51.93
2023-03-03T08:48:01.168Z,48.97
2023-03-03T08:50:22.341Z,48.23
2023-03-03T08:52:43.579Z,52.37
2023-03-03T08:55:07.717Z,49.40
2023-03-03T08:57:30.304Z,52.37
2023-03-03T08:59:51.669Z,51.30
2023-03-03T09:02:12.971Z,41.97
2023-03-03T09:04:34.176Z,42.10
2023-03-03T09:06:55.446Z,42.60
2023-03-03T09:09:16.787Z,47.17
2023-03-03T09:11:39.385Z,46.43
2023-03-03T09:14:03.301Z,46.60
2023-03-03T09:16:24.205Z,46.27
2023-03-03T09:18:45.325Z,47.70
2023-03-03T09:21:18.833Z,45.43
2023-03-03T09:23:40.419Z,48.70
2023-03-03T09:26:16.295Z,50.13
2023-03-03T09:28:38.970Z,44.93
2023-03-03T09:31:01.424Z,44.07
2023-03-03T09:33:25.179Z,47.10
2023-03-03T09:35:48.613Z,44.07
2023-03-03T09:38:18.129Z,53.63
2023-03-03T09:40:47.237Z,46.73
2023-03-03T09:43:10.614Z,45.50
2023-03-03T09:45:38.605Z,43.73
2023-03-03T09:48:16.285Z,42.20
2023-03-03T09:50:43.446Z,42.20
2023-03-03T09:53:14.502Z,45.40
2023-03-03T09:55:42.601Z,42.57
2023-03-03T09:58:11.608Z,41.23
2023-03-03T10:00:40.212Z,41.03
2023-03-03T10:03:21.405Z,39.67
2023-03-03T10:05:45.115Z,43.43
2023-03-03T10:08:18.255Z,42.53
2023-03-03T10:10:51.604Z,39.70
2023-03-03T10:13:21.514Z,42.80
2023-03-03T10:15:50.443Z,42.67
2023-03-03T10:18:22.132Z,37.83
2023-03-03T10:20:51.318Z,38.23
2023-03-03T10:23:20.938Z,38.10
2023-03-03T10:25:43.747Z,40.87
2023-03-03T10:28:20.813Z,41.80
2023-03-03T10:31:04.081Z,39.57
2023-03-03T10:33:31.513Z,38.57
2023-03-03T10:36:07.386Z,42.53
2023-03-03T10:38:34.640Z,40.90
2023-03-03T10:40:58.282Z,40.67
2023-03-03T10:43:32.217Z,41.13
2023-03-03T10:46:01.883Z,39.13
2023-03-03T10:48:37.634Z,36.53
2023-03-03T10:51:03.666Z,39.37
2023-03-03T10:53:30.644Z,44.43
2023-03-03T10:55:59.846Z,39.10
2023-03-03T10:58:29.314Z,37.60
2023-03-03T11:00:53.549Z,37.80
2023-03-03T11:03:36.508Z,37.03
2023-03-03T11:06:01.216Z,37.37
2023-03-03T11:08:25.586Z,40.70
2023-03-03T11:10:52.416Z,38.13
2023-03-03T11:13:16.964Z,39.67
2023-03-03T11:15:42.734Z,40.23
2023-03-03T11:18:11.754Z,39.83
2023-03-03T11:20:37.173Z,46.07
2023-03-03T11:23:04.861Z,42.63
2023-03-03T11:25:28.313Z,37.67
2023-03-03T11:28:10.332Z,36.23
2023-03-03T11:30:40.830Z,39.13
2023-03-03T11:33:05.064Z,41.27
2023-03-03T11:35:28.355Z,37.60
2023-03-03T11:37:53.941Z,36.10
2023-03-03T11:40:19.416Z,40.33
2023-03-03T11:42:45.033Z,40.33
2023-03-03T11:45:12.208Z,35.73
2023-03-03T11:47:35.934Z,37.57
2023-03-03T11:50:00.302Z,36.50
2023-03-03T11:52:28.564Z,39.80
2023-03-03T11:54:53.209Z,40.63
2023-03-03T11:57:20.331Z,33.90
2023-03-03T11:59:49.175Z,37.80
2023-03-03T12:02:21.638Z,37.10
2023-03-03T12:04:45.335Z,36.53
2023-03-03T12:07:18.984Z,37.27
2023-03-03T12:09:45.546Z,38.10
2023-03-03T12:12:08.269Z,36.63
2023-03-03T12:14:37.886Z,40.00
2023-03-03T12:17:01.216Z,41.83
2023-03-03T12:19:36.728Z,37.43
2023-03-03T12:22:06.723Z,36.60
2023-03-03T12:24:35.107Z,36.43
2023-03-03T12:27:00.795Z,32.63
2023-03-03T12:29:26.813Z,36.47
2023-03-03T12:31:53.364Z,34.50
2023-03-03T12:34:19.855Z,37.43
2023-03-03T12:36:51.510Z,33.80
2023-03-03T12:39:32.698Z,42.33
2023-03-03T12:42:00.502Z,34.97
2023-03-03T12:44:24.042Z,39.07
2023-03-03T12:46:46.794Z,33.77
2023-03-03T12:49:09.575Z,36.53
2023-03-03T12:51:37.996Z,34.13
2023-03-03T12:54:20.262Z,40.93
2023-03-03T12:56:42.672Z,60.07
2023-03-03T12:59:05.724Z,119.80
2023-03-03T13:01:35.963Z,37.80
2023-03-03T13:04:02.096Z,36.67
2023-03-03T13:06:28.331Z,34.90
2023-03-03T13:08:54.330Z,35.87
2023-03-03T13:11:24.061Z,34.97
2023-03-03T13:13:47.075Z,36.07
2023-03-03T13:16:16.834Z,38.33
2023-03-03T13:18:46.278Z,41.07
2023-03-03T13:21:11.311Z,37.13
2023-03-03T13:23:38.237Z,35.93
2023-03-03T13:26:01.690Z,34.67
2023-03-03T13:28:27.193Z,38.10
2023-03-03T13:30:49.312Z,38.33
2023-03-03T13:33:12.495Z,39.10
2023-03-03T13:35:39.723Z,35.73
2023-03-03T13:38:03.271Z,35.53
2023-03-03T13:40:26.831Z,38.43
2023-03-03T13:42:50.011Z,33.83
2023-03-03T13:45:17.609Z,33.23
2023-03-03T13:47:44.647Z,33.23
2023-03-03T13:50:11.805Z,33.37
2023-03-03T13:52:33.211Z,33.70
2023-03-03T13:55:00.730Z,35.67
2023-03-03T13:57:32.576Z,34.60
2023-03-03T13:59:58.689Z,32.50
2023-03-03T14:02:32.115Z,34.10
2023-03-03T14:04:54.553Z,37.37
2023-03-03T14:07:18.072Z,32.57
2023-03-03T14:09:46.653Z,34.27
2023-03-03T14:12:14.121Z,32.10
2023-03-03T14:14:42.097Z,32.73
2023-03-03T14:17:05.197Z,37.60
2023-03-03T14:19:30.763Z,30.43
2023-03-03T14:21:58.620Z,145.87
2023-03-03T14:24:20.515Z,33.70
2023-03-03T14:26:46.905Z,32.40
2023-03-03T14:29:17.725Z,34.20
2023-03-03T14:31:43.324Z,33.60
2023-03-03T14:34:09.092Z,30.63
2023-03-03T14:36:32.557Z,30.87
2023-03-03T14:38:53.641Z,32.27
2023-03-03T14:41:16.495Z,30.27
2023-03-03T14:43:38.564Z,30.33
2023-03-03T14:46:17.805Z,31.13
2023-03-03T14:48:50.932Z,30.87
2023-03-03T14:51:23.679Z,28.43
2023-03-03T14:53:45.779Z,28.70
2023-03-03T14:56:17.874Z,28.43
2023-03-03T14:58:41.098Z,30.17
2023-03-03T15:01:08.714Z,28.87
2023-03-03T15:03:29.681Z,28.47
2023-03-03T15:05:52.875Z,29.43
2023-03-03T15:08:15.514Z,27.17
2023-03-03T15:10:37.174Z,28.27
2023-03-03T15:12:58.498Z,27.93
2023-03-03T15:15:20.753Z,27.20
2023-03-03T15:17:42.965Z,29.93
2023-03-03T15:20:11.089Z,27.27
2023-03-03T15:22:43.291Z,26.57
2023-03-03T15:25:05.683Z,27.20
2023-03-03T15:27:29.688Z,25.77
2023-03-03T15:29:56.338Z,30.50
2023-03-03T15:32:22.157Z,25.63
2023-03-03T15:34:45.533Z,29.53
2023-03-03T15:37:10.170Z,28.30
2023-03-03T15:39:37.430Z,29.47
2023-03-03T15:42:04.091Z,28.33
2023-03-03T15:44:29.301Z,27.60
2023-03-03T15:46:58.445Z,25.90
2023-03-03T15:49:26.433Z,28.87
2023-03-03T15:52:03.183Z,27.47
2023-03-03T15:54:31.001Z,29.50
2023-03-03T15:56:56.317Z,27.10
2023-03-03T15:59:39.364Z,31.33
2023-03-03T16:02:04.744Z,28.23
2023-03-03T16:04:26.875Z,30.57
2023-03-03T16:06:50.766Z,27.43
2023-03-03T16:09:17.709Z,31.93
2023-03-03T16:11:42.902Z,29.87
2023-03-03T16:14:14.622Z,29.30
2023-03-03T16:16:40.186Z,31.10
2023-03-03T16:19:07.925Z,27.40
2023-03-03T16:21:35.574Z,29.97
2023-03-03T16:23:57.799Z,28.50
2023-03-03T16:26:36.796Z,30.17
2023-03-03T16:29:04.175Z,29.60
2023-03-03T16:31:30.295Z,28.53
2023-03-03T16:33:55.139Z,29.70
2023-03-03T16:36:22.801Z,31.77
2023-03-03T16:38:45.299Z,31.17
2023-03-03T16:41:10.169Z,30.53
2023-03-03T16:43:34.854Z,28.97
2023-03-03T16:45:59.254Z,31.13
2023-03-03T16:48:27.747Z,32.30
2023-03-03T16:50:55.115Z,29.63
2023-03-03T16:53:19.813Z,30.50
2023-03-03T16:55:51.395Z,34.43
2023-03-03T16:58:22.456Z,32.73
2023-03-03T17:00:47.818Z,35.43
2023-03-03T17:03:21.842Z,33.80
2023-03-03T17:05:47.611Z,28.73
2023-03-03T17:08:24.432Z,36.10
2023-03-03T17:10:51.412Z,34.63
2023-03-03T17:13:24.103Z,35.17
2023-03-03T17:15:50.024Z,32.50
2023-03-03T17:18:15.597Z,36.67
2023-03-03T17:20:40.420Z,31.80
2023-03-03T17:23:19.456Z,34.27
2023-03-03T17:25:45.560Z,32.17
2023-03-03T17:28:13.718Z,35.07
2023-03-03T17:30:39.388Z,33.73
2023-03-03T17:33:07.219Z,33.87
2023-03-03T17:35:34.766Z,33.03
2023-03-03T17:38:00.550Z,36.03
2023-03-03T17:40:26.287Z,36.00
2023-03-03T17:42:51.926Z,34.73
2023-03-03T17:45:13.632Z,38.33
2023-03-03T17:47:41.507Z,37.60
2023-03-03T17:50:08.702Z,32.50
2023-03-03T17:52:38.986Z,35.97
2023-03-03T17:55:06.512Z,40.03
2023-03-03T17:57:34.001Z,33.00
2023-03-03T18:00:07.673Z,36.63
2023-03-03T18:02:42.341Z,37.27
2023-03-03T18:05:21.410Z,35.67
2023-03-03T18:07:50.975Z,36.30
2023-03-03T18:10:32.916Z,36.57
2023-03-03T18:12:56.514Z,39.57
2023-03-03T18:15:28.925Z,39.90
2023-03-03T18:18:03.052Z,37.97
2023-03-03T18:20:47.937Z,37.90
2023-03-03T18:23:27.751Z,40.80
2023-03-03T18:25:57.235Z,36.87
2023-03-03T18:28:22.231Z,37.93
2023-03-03T18:30:54.956Z,40.27
2023-03-03T18:33:17.256Z,40.37
2023-03-03T18:35:39.319Z,40.63
2023-03-03T18:38:18.937Z,36.83
2023-03-03T18:40:50.039Z,40.10
2023-03-03T18:43:30.139Z,36.87
2023-03-03T18:45:51.778Z,40.07
2023-03-03T18:48:15.042Z,42.33
2023-03-03T18:50:37.245Z,36.87
2023-03-03T18:53:09.478Z,40.10
2023-03-03T18:55:40.201Z,37.13
2023-03-03T18:58:03.392Z,40.07
2023-03-03T19:00:25.724Z,38.83
2023-03-03T19:02:53.104Z,43.93
2023-03-03T19:05:24.244Z,38.80
2023-03-03T19:07:49.564Z,37.97
2023-03-03T19:10:31.451Z,39.43
2023-03-03T19:12:53.229Z,36.70
2023-03-03T19:15:34.386Z,36.73
2023-03-03T19:17:56.787Z,39.90
2023-03-03T19:20:18.398Z,37.50
2023-03-03T19:22:45.930Z,39.03
2023-03-03T19:25:18.308Z,40.80
2023-03-03T19:27:40.535Z,38.87
2023-03-03T19:30:20.824Z,42.37
2023-03-03T19:32:56.993Z,41.97
2023-03-03T19:35:25.002Z,42.70
2023-03-03T19:37:53.010Z,40.33
2023-03-03T19:40:19.360Z,40.67
2023-03-03T19:42:47.620Z,39.90
2023-03-03T19:45:20.333Z,42.97
2023-03-03T19:47:45.561Z,43.23
2023-03-03T19:50:13.310Z,46.03
2023-03-03T19:52:38.074Z,46.40
2023-03-03T19:55:09.900Z,55.97
2023-03-03T19:57:43.485Z,66.77
2023-03-03T20:00:08.304Z,65.43
2023-03-03T20:02:37.727Z,53.13
2023-03-03T20:05:03.401Z,49.60
2023-03-03T20:07:29.833Z,46.93
2023-03-03T20:09:56.576Z,51.93
2023-03-03T20:12:25.309Z,52.90
2023-03-03T20:14:49.993Z,49.43
2023-03-03T20:17:35.974Z,48.30
2023-03-03T20:20:02.670Z,55.47
2023-03-03T20:22:29.034Z,50.00
2023-03-03T20:24:59.863Z,48.63
2023-03-03T20:27:25.136Z,48.37
2023-03-03T20:29:51.836Z,51.30
2023-03-03T20:32:16.151Z,53.20
2023-03-03T20:34:43.986Z,53.00
2023-03-03T20:37:08.045Z,59.07
2023-03-03T20:39:35.555Z,55.97
2023-03-03T20:42:05.710Z,52.60
2023-03-03T20:44:35.378Z,48.93
2023-03-03T20:46:59.448Z,52.40
2023-03-03T20:49:34.151Z,48.93
2023-03-03T20:51:57.996Z,57.83
2023-03-03T20:54:22.162Z,56.80
2023-03-03T20:56:46.050Z,52.30
2023-03-03T20:59:16.759Z,49.83
2023-03-03T21:01:42.807Z,50.70
2023-03-03T21:04:18.317Z,54.00
2023-03-03T21:06:40.801Z,48.80
2023-03-03T21:09:01.842Z,54.50
2023-03-03T21:11:24.275Z,53.93
2023-03-03T21:13:45.899Z,53.07
2023-03-03T21:16:10.622Z,55.17
2023-03-03T21:18:32.965Z,54.47
2023-03-03T21:20:54.017Z,52.27
2023-03-03T21:23:16.661Z,53.70
2023-03-03T21:25:48.090Z,54.77
2023-03-03T21:28:16.865Z,55.47
2023-03-03T21:30:53.066Z,55.37
2023-03-03T21:33:38.951Z,56.27
2023-03-03T21:36:02.247Z,51.83
2023-03-03T21:38:32.893Z,57.87
2023-03-03T21:41:00.027Z,57.50
2023-03-03T21:43:33.903Z,60.87
2023-03-03T21:45:55.401Z,53.70
2023-03-03T21:48:17.399Z,57.23
2023-03-03T21:50:41.249Z,51.80
2023-03-03T21:53:03.847Z,57.53
2023-03-03T21:55:26.770Z,58.07
2023-03-03T21:57:48.145Z,57.30
2023-03-03T22:00:10.033Z,56.30
2023-03-03T22:02:31.237Z,59.37
2023-03-03T22:04:52.650Z,56.00
2023-03-03T22:07:13.713Z,53.17
2023-03-03T22:09:36.574Z,58.13
2023-03-03T22:11:57.648Z,57.13
2023-03-03T22:14:19.222Z,57.40
2023-03-03T22:16:40.355Z,59.87
2023-03-03T22:19:02.849Z,56.70
2023-03-03T22:21:24.236Z,57.27
2023-03-03T22:23:45.543Z,59.47
2023-03-03T22:26:08.257Z,62.67
2023-03-03T22:28:30.020Z,60.17
2023-03-03T22:30:50.986Z,60.23
2023-03-03T22:33:12.116Z,61.07
2023-03-03T22:35:33.504Z,58.93
2023-03-03T22:37:54.602Z,62.07
2023-03-03T22:40:15.820Z,60.73
2023-03-03T22:42:38.349Z,61.47
2023-03-03T22:44:59.753Z,64.60
2023-03-03T22:47:20.873Z,59.73
2023-03-03T22:49:42.182Z,61.10
2023-03-03T22:52:03.601Z,56.40
2023-03-03T22:54:24.914Z,64.37
2023-03-03T22:56:46.850Z,62.67
2023-03-03T22:59:09.533Z,60.17
2023-03-03T23:01:30.755Z,70.93
2023-03-03T23:03:52.053Z,65.07
2023-03-03T23:06:13.303Z,69.40
2023-03-03T23:08:34.638Z,72.23
2023-03-03T23:10:55.885Z,64.70
2023-03-03T23:13:17.317Z,66.53
2023-03-03T23:15:39.905Z,63.47
2023-03-03T23:18:01.110Z,59.53
2023-03-03T23:20:22.959Z,66.10
2023-03-03T23:22:44.090Z,66.30
2023-03-03T23:25:05.786Z,63.03
2023-03-03T23:27:27.041Z,71.50
2023-03-03T23:29:48.320Z,65.67
2023-03-03T23:32:11.181Z,58.40
2023-03-03T23:34:32.626Z,66.23
2023-03-03T23:36:53.694Z,65.43
2023-03-03T23:39:15.256Z,69.43
2023-03-03T23:41:39.082Z,70.63
2023-03-03T23:44:00.149Z,68.87
2023-03-03T23:46:21.466Z,64.13
2023-03-03T23:48:43.923Z,66.00
2023-03-03T23:51:05.309Z,64.50
2023-03-03T23:53:26.197Z,70.07
2023-03-03T23:55:47.480Z,67.93
2023-03-03T23:58:08.970Z,69.13
